Time;durP1;ratioP1;P1;durP2;ratioP2;P2;SDS_P1;SDS_P2;PMS_P1;PMS_P2;Temp;Humidity;BMP_temperature;BMP_pressure;BME280_temperature;BME280_humidity;BME280_pressure;Samples;Min_cycle;Max_cycle;Signal;HPM_P1;HPM_P2
2021/10/02 00:44:47;;;;;;;19.75;13.40;;;;;;;10.75;68.94;100429.16;5892777;23;98209;-83
2021/10/02 00:47:17;;;;;;;19.95;14.63;;;;;;;10.87;68.71;100436.63;4951556;28;99955;-83
2021/10/02 01:00:25;;;;;;;17.90;13.32;;;;;;;10.74;68.70;100414.31;5048190;23;98302;-84
2021/10/02 01:03:00;;;;;;;19.33;13.30;;;;;;;10.69;69.06;100424.13;4966939;28;95846;-85
2021/10/02 01:05:41;;;;;;;18.20;13.68;;;;;;;10.71;69.17;100429.34;4945041;28;96773;-84
2021/10/02 01:11:18;;;;;;;18.33;13.77;;;;;;;10.57;69.11;100419.28;5257232;23;98476;-81
2021/10/02 01:14:29;;;;;;;21.10;14.10;;;;;;;10.57;69.78;100421.91;4947138;28;95810;-84
2021/10/02 01:25:37;;;;;;;18.27;13.13;;;;;;;10.69;68.56;100418.00;5046332;22;96781;-83
2021/10/02 01:28:15;;;;;;;24.52;14.90;;;;;;;10.70;68.77;100424.97;4947979;28;96015;-82
2021/10/02 01:47:36;;;;;;;14.52;11.93;;;;;;;10.43;68.99;100396.09;4951446;28;97479;-84
2021/10/02 01:50:03;;;;;;;17.85;12.70;;;;;;;10.54;69.09;100407.09;4945836;28;96043;-84
2021/10/02 01:57:57;;;;;;;17.88;12.48;;;;;;;10.68;68.61;100396.16;5724659;23;98870;-83
2021/10/02 02:00:23;;;;;;;15.45;12.20;;;;;;;10.67;68.13;100385.69;4966401;28;96706;-84
2021/10/02 02:05:51;;;;;;;16.40;12.57;;;;;;;10.67;68.45;100404.06;5090338;23;98302;-85
2021/10/02 02:08:20;;;;;;;18.65;12.85;;;;;;;10.52;68.40;100385.28;4925693;28;96469;-83
2021/10/02 02:29:47;;;;;;;14.70;12.00;;;;;;;10.40;68.64;100368.19;5724341;23;98514;-85
2021/10/02 02:32:13;;;;;;;17.17;10.93;;;;;;;10.29;68.72;100370.28;4926475;28;96104;-84
2021/10/02 02:34:39;;;;;;;19.15;11.05;;;;;;;10.22;68.91;100362.66;4927415;28;96631;-85
2021/10/02 02:37:05;;;;;;;17.00;12.23;;;;;;;10.46;68.44;100368.91;5123511;23;99144;-82
2021/10/02 02:39:31;;;;;;;16.13;10.70;;;;;;;10.31;68.44;100362.38;4889609;28;95913;-84
2021/10/02 03:04:32;;;;;;;14.27;11.20;;;;;;;10.11;69.35;100371.69;6043517;23;98741;31
2021/10/02 03:06:59;;;;;;;17.38;11.98;;;;;;;10.07;69.39;100353.50;5386050;23;103248;-84
2021/10/02 03:09:25;;;;;;;15.20;11.75;;;;;;;10.20;69.35;100367.94;5073017;23;99555;-84
2021/10/02 03:11:52;;;;;;;15.63;11.85;;;;;;;10.10;69.08;100353.41;4942426;28;96214;-83
2021/10/02 03:14:19;;;;;;;16.05;11.68;;;;;;;10.07;69.23;100362.22;4949321;28;96522;-83
2021/10/02 03:16:51;;;;;;;14.55;10.77;;;;;;;9.96;69.21;100353.81;4953302;28;99724;-82
2021/10/02 03:38:03;;;;;;;;;;;;;;;9.97;69.36;100368.63;5456850;23;99375;-81
2021/10/02 03:40:31;;;;;;;12.60;10.65;;;;;;;9.87;70.03;100352.34;4949744;23;99206;-82
2021/10/02 04:09:43;;;;;;;13.10;11.50;;;;;;;9.77;70.13;100347.41;5054929;22;98620;-84
2021/10/02 04:12:09;;;;;;;15.68;11.40;;;;;;;9.74;70.43;100335.25;5268163;23;99713;-81
2021/10/02 04:17:17;;;;;;;16.23;11.70;;;;;;;9.85;69.96;100359.38;5431799;23;98332;-82
2021/10/02 04:25:07;;;;;;;17.42;11.35;;;;;;;9.73;70.42;100359.75;5306966;23;99080;-82
2021/10/02 04:27:33;;;;;;;13.30;10.77;;;;;;;9.74;70.11;100350.97;5530582;23;98933;-83
2021/10/02 04:32:41;;;;;;;13.73;11.32;;;;;;;9.65;70.30;100349.50;5193852;23;97861;-84
2021/10/02 04:35:07;;;;;;;15.10;11.52;;;;;;;9.68;70.53;100359.88;5204450;23;98394;-83
2021/10/02 04:37:33;;;;;;;15.40;12.13;;;;;;;9.66;70.65;100359.09;4929521;28;95935;-83
2021/10/02 04:45:37;;;;;;;16.73;10.68;;;;;;;9.63;70.80;100356.56;5387505;23;98054;-83
2021/10/02 04:56:50;;;;;;;17.25;11.93;;;;;;;9.61;71.45;100361.00;5734005;23;99049;-80
2021/10/02 04:59:16;;;;;;;15.40;11.27;;;;;;;9.70;70.94;100360.72;4927057;28;96233;-81
2021/10/02 05:07:05;;;;;;;14.40;12.13;;;;;;;9.75;70.77;100373.69;5115376;23;98688;-80
2021/10/02 05:09:31;;;;;;;17.67;11.63;;;;;;;9.70;70.77;100359.84;4957830;23;96136;-82
2021/10/02 05:11:57;;;;;;;18.55;12.15;;;;;;;9.72;70.83;100372.03;4927558;28;99704;-83
2021/10/02 05:14:23;;;;;;;13.88;11.43;;;;;;;9.74;71.14;100371.94;5442303;23;98352;-82
2021/10/02 05:16:49;;;;;;;19.02;12.43;;;;;;;9.80;70.39;100376.16;4940251;28;96438;-84
2021/10/02 05:21:44;;;;;;;14.82;11.55;;;;;;;9.80;70.66;100368.28;4938364;28;96749;-83
2021/10/02 05:29:34;;;;;;;;;;;;;;;10.02;70.00;100372.00;5176916;23;98516;-82
2021/10/02 05:46:40;;;;;;;13.55;11.52;;;;;;;10.18;70.02;100367.09;5148937;23;99093;-81
2021/10/02 05:57:31;;;;;;;19.70;11.43;;;;;;;13.74;60.04;100372.66;5358268;23;97676;-84
2021/10/02 05:59:57;;;;;;;14.63;12.05;;;;;;;14.88;56.94;100375.09;5042484;23;98564;-83
2021/10/02 06:02:23;;;;;;;15.35;12.98;;;;;;;14.58;56.88;100372.22;5114093;23;98315;-84
2021/10/02 06:04:48;;;;;;;15.98;11.57;;;;;;;14.10;58.74;100378.91;4928249;28;96988;-86
2021/10/02 06:07:14;;;;;;;13.05;11.52;;;;;;;13.91;59.55;100377.16;4937844;28;97127;-84
2021/10/02 06:09:39;;;;;;;13.85;10.93;;;;;;;14.02;59.06;100381.91;4932349;28;96790;-84
2021/10/02 06:12:05;;;;;;;13.13;11.10;;;;;;;14.15;58.95;100382.19;4916169;28;96850;-81
2021/10/02 06:14:31;;;;;;;13.05;11.65;;;;;;;13.98;59.71;100375.06;4924504;28;98149;-84
2021/10/02 06:16:56;;;;;;;13.63;11.65;;;;;;;13.97;59.52;100384.78;4919468;28;97396;-86
2021/10/02 06:19:22;;;;;;;17.15;11.95;;;;;;;13.76;60.24;100373.44;4921663;28;97526;-87
2021/10/02 06:21:47;;;;;;;18.80;12.38;;;;;;;13.71;60.63;100377.22;4926099;28;96841;-87
2021/10/02 06:24:14;;;;;;;16.08;12.55;;;;;;;13.77;60.56;100372.50;4941280;28;98172;-87
2021/10/02 06:26:40;;;;;;;14.20;11.80;;;;;;;13.83;60.83;100379.28;4939158;28;101278;-85
2021/10/02 06:29:09;;;;;;;14.38;12.32;;;;;;;13.95;60.69;100377.84;4912633;28;96834;-86
2021/10/02 06:31:35;;;;;;;17.42;12.35;;;;;;;14.19;60.11;100384.59;4921121;28;97317;-86
2021/10/02 06:34:01;;;;;;;16.20;11.85;;;;;;;14.44;59.87;100375.50;4946356;28;98221;-86
2021/10/02 06:36:28;;;;;;;16.38;12.77;;;;;;;14.63;59.50;100375.47;4942957;28;100639;-85
2021/10/02 06:38:54;;;;;;;15.88;13.00;;;;;;;14.87;59.17;100368.94;4933507;28;99598;-86
2021/10/02 06:41:20;;;;;;;14.95;11.77;;;;;;;15.11;58.94;100365.97;4921541;28;96885;-85
2021/10/02 06:43:46;;;;;;;16.38;11.68;;;;;;;15.35;58.36;100367.31;4937889;28;97248;-86
2021/10/02 06:46:12;;;;;;;15.07;11.55;;;;;;;15.59;57.78;100364.28;4948079;28;98124;-86
2021/10/02 06:48:37;;;;;;;16.13;12.38;;;;;;;15.97;57.31;100379.91;4946492;28;96795;-86
2021/10/02 06:51:03;;;;;;;14.13;12.05;;;;;;;16.14;57.18;100377.16;4947862;28;97701;-85
2021/10/02 06:53:29;;;;;;;18.65;13.25;;;;;;;16.39;56.57;100368.69;4929974;28;101257;-85
2021/10/02 06:55:54;;;;;;;30.25;12.60;;;;;;;16.88;55.40;100367.66;4911787;28;101303;-85
2021/10/02 06:58:19;;;;;;;16.20;12.85;;;;;;;17.09;55.27;100361.06;4924595;28;97557;-83
2021/10/02 07:00:45;;;;;;;18.77;13.43;;;;;;;17.66;54.35;100370.84;4907653;28;97119;-84
2021/10/02 07:03:11;;;;;;;15.48;13.23;;;;;;;18.54;52.47;100372.25;4932688;28;98597;-84
2021/10/02 07:05:36;;;;;;;16.15;13.15;;;;;;;19.46;50.70;100367.81;4911251;28;100819;-84
2021/10/02 07:08:02;;;;;;;15.23;13.57;;;;;;;20.15;48.43;100370.88;4918334;28;98155;-85
2021/10/02 07:10:29;;;;;;;15.27;13.68;;;;;;;20.84;47.24;100368.41;4936097;28;97965;-85
2021/10/02 07:12:55;;;;;;;16.42;13.82;;;;;;;21.76;45.93;100358.59;4936042;28;101506;-84
2021/10/02 07:15:21;;;;;;;16.60;13.38;;;;;;;23.11;43.21;100362.63;4935550;28;97993;-83
2021/10/02 07:17:46;;;;;;;13.90;12.57;;;;;;;24.52;40.82;100361.72;4923659;28;97484;-82
2021/10/02 07:20:16;;;;;;;22.23;14.60;;;;;;;25.12;39.58;100358.81;4911657;28;97271;-83
2021/10/02 07:22:43;;;;;;;15.48;13.70;;;;;;;25.63;38.24;100364.78;4929916;28;97624;-83
2021/10/02 07:25:14;;;;;;;15.88;14.27;;;;;;;26.57;37.40;100365.34;4936258;28;101697;-82
2021/10/02 07:27:40;;;;;;;;;;;;;;;26.91;36.59;100367.31;4929488;28;97083;-83
2021/10/02 07:30:07;;;;;;;14.15;12.73;;;;;;;27.44;35.88;100354.72;4924069;28;97129;-85
2021/10/02 07:32:33;;;;;;;13.82;12.45;;;;;;;27.86;35.03;100348.50;4912075;28;101159;-83
2021/10/02 07:34:58;;;;;;;14.85;12.18;;;;;;;28.34;34.33;100349.66;4940778;28;97242;-83
2021/10/02 07:37:25;;;;;;;13.05;11.75;;;;;;;28.75;34.08;100353.22;4910155;28;98296;-84
2021/10/02 07:39:51;;;;;;;16.02;11.70;;;;;;;29.16;33.47;100345.09;4908938;28;97047;-85
2021/10/02 07:42:18;;;;;;;11.80;10.80;;;;;;;28.71;33.71;100346.50;4924528;28;98208;-84
2021/10/02 07:44:49;;;;;;;12.48;11.38;;;;;;;29.17;32.97;100345.94;4916511;28;101152;-82
2021/10/02 07:47:15;;;;;;;12.73;11.50;;;;;;;29.18;32.86;100347.66;4916425;28;98243;-83
2021/10/02 07:49:41;;;;;;;13.40;11.35;;;;;;;29.17;33.08;100343.25;4911322;28;97690;-82
2021/10/02 07:52:07;;;;;;;11.73;10.73;;;;;;;29.44;32.31;100334.72;4911300;28;102829;-84
2021/10/02 07:54:33;;;;;;;12.13;10.88;;;;;;;30.10;31.28;100331.72;4930701;28;101563;-84
2021/10/02 07:56:59;;;;;;;11.90;10.80;;;;;;;28.81;32.47;100335.50;4928447;28;96759;-85
2021/10/02 07:59:28;;;;;;;11.90;10.82;;;;;;;29.94;31.47;100324.56;4926078;28;96997;-85
2021/10/02 08:01:57;;;;;;;11.13;10.23;;;;;;;30.86;30.31;100327.28;4921510;28;97782;-86
2021/10/02 08:04:23;;;;;;;11.80;10.75;;;;;;;31.18;29.52;100323.38;4935578;28;97984;-91
2021/10/02 08:06:49;;;;;;;11.93;10.65;;;;;;;30.77;29.86;100323.78;4913426;23;97878;-83
2021/10/02 08:09:15;;;;;;;12.00;11.00;;;;;;;30.70;29.50;100322.00;4890517;28;96903;-83
2021/10/02 08:11:42;;;;;;;11.95;10.85;;;;;;;31.14;29.42;100316.66;4880984;28;97321;-83
2021/10/02 08:14:08;;;;;;;12.75;11.65;;;;;;;30.98;29.29;100319.53;4879243;28;101200;-84
2021/10/02 08:16:34;;;;;;;14.07;10.43;;;;;;;31.20;29.10;100317.78;4886574;28;97613;-83
2021/10/02 08:19:01;;;;;;;11.18;10.20;;;;;;;31.19;29.23;100308.00;4854774;28;97048;-83
2021/10/02 08:21:28;;;;;;;11.02;9.80;;;;;;;32.05;28.49;100319.97;4864160;28;101527;-82
2021/10/02 08:23:54;;;;;;;10.88;9.98;;;;;;;32.42;27.65;100316.16;4872432;28;97932;-80
2021/10/02 08:26:20;;;;;;;12.07;10.85;;;;;;;31.97;28.46;100310.09;4872106;28;97554;-83
2021/10/02 08:28:48;;;;;;;12.63;11.45;;;;;;;32.03;28.05;100313.91;4897501;28;97616;-83
2021/10/02 08:31:16;;;;;;;11.77;10.68;;;;;;;31.11;29.30;100315.16;4860590;28;101826;-82
2021/10/02 08:33:42;;;;;;;11.90;10.90;;;;;;;30.89;29.83;100310.66;4895840;28;101063;-83
2021/10/02 08:36:08;;;;;;;11.88;10.68;;;;;;;30.84;29.86;100308.50;4880059;28;96959;-84
2021/10/02 08:38:34;;;;;;;11.77;10.60;;;;;;;30.54;30.29;100304.00;4869382;28;97999;-82
2021/10/02 08:41:02;;;;;;;11.43;10.32;;;;;;;30.59;29.60;100305.16;4890294;28;100948;-82
2021/10/02 08:43:28;;;;;;;10.95;9.93;;;;;;;30.29;30.56;100306.94;4879284;28;102118;-87
2021/10/02 08:45:54;;;;;;;11.35;10.30;;;;;;;30.16;30.71;100296.66;4873435;28;96974;-82
2021/10/02 08:48:19;;;;;;;11.70;10.65;;;;;;;30.55;30.54;100300.28;4902151;28;97049;-84
2021/10/02 08:50:47;;;;;;;11.35;10.30;;;;;;;30.22;30.52;100295.13;4897718;28;101650;-87
2021/10/02 08:53:13;;;;;;;11.15;10.25;;;;;;;29.73;31.16;100290.00;4879626;28;101488;-95
2021/10/02 08:55:41;;;;;;;11.25;10.25;;;;;;;29.23;31.90;100307.41;4904557;28;97131;-89
2021/10/02 08:58:07;;;;;;;11.30;10.30;;;;;;;29.59;31.27;100296.16;4880784;28;96899;-87
2021/10/02 09:00:33;;;;;;;10.95;9.93;;;;;;;29.48;31.38;100306.31;4861376;28;101375;-82
2021/10/02 09:02:59;;;;;;;11.02;10.10;;;;;;;29.63;31.00;100302.91;4877446;28;101258;-82
2021/10/02 09:05:25;;;;;;;11.00;9.90;;;;;;;30.04;30.73;100294.56;4876425;28;97137;-83
2021/10/02 09:07:54;;;;;;;11.23;10.23;;;;;;;30.23;30.55;100303.06;4871332;28;96980;-93
2021/10/02 09:10:20;;;;;;;11.60;10.40;;;;;;;29.59;30.89;100293.44;4867679;28;100144;-88
2021/10/02 09:12:47;;;;;;;9.65;8.95;;;;;;;29.39;32.33;100299.25;4874178;28;98048;-86
2021/10/02 09:15:13;;;;;;;11.50;10.38;;;;;;;29.68;31.37;100301.34;4875197;28;97130;-95
2021/10/02 09:17:39;;;;;;;9.10;8.50;;;;;;;30.55;29.79;100300.28;4884414;28;96885;-90
2021/10/02 09:20:08;;;;;;;11.15;10.15;;;;;;;29.08;31.28;100300.03;4894166;28;100812;-87
2021/10/02 09:22:34;;;;;;;11.27;10.40;;;;;;;28.99;31.62;100295.63;4880931;28;101525;-91
2021/10/02 09:25:01;;;;;;;10.18;9.15;;;;;;;28.86;31.40;100301.56;4863067;28;97236;-92
2021/10/02 09:27:29;;;;;;;10.50;9.50;;;;;;;29.68;30.66;100287.00;4882770;28;97487;-90
2021/10/02 09:30:03;;;;;;;9.45;8.75;;;;;;;29.16;31.84;100291.06;4881315;28;100603;-95
2021/10/02 09:32:35;;;;;;;10.20;9.30;;;;;;;29.14;31.33;100292.25;4875074;28;101732;-88
2021/10/02 09:35:08;;;;;;;14.55;10.23;;;;;;;28.73;32.09;100289.59;4871945;28;98050;-77
2021/10/02 09:37:36;;;;;;;10.38;9.50;;;;;;;29.26;31.67;100296.25;4896489;28;96796;-79
2021/10/02 09:40:05;;;;;;;9.98;9.20;;;;;;;30.21;30.57;100298.88;4860541;28;101542;-83
2021/10/02 09:42:39;;;;;;;11.18;10.18;;;;;;;31.88;28.76;100297.59;4888523;28;101192;-82
2021/10/02 09:45:07;;;;;;;10.60;9.68;;;;;;;32.43;27.56;100301.53;4863731;28;97152;-82
2021/10/02 09:47:33;;;;;;;10.48;9.68;;;;;;;32.45;27.30;100301.38;4896112;28;97066;-81
2021/10/02 09:49:59;;;;;;;9.52;8.65;;;;;;;31.56;28.59;100299.75;4905697;28;101345;-82
2021/10/02 09:52:27;;;;;;;9.43;8.63;;;;;;;30.56;29.39;100293.84;4879699;28;97338;-82
2021/10/02 09:54:53;;;;;;;9.93;9.05;;;;;;;30.57;29.11;100290.94;4894018;28;97100;-83
2021/10/02 09:57:18;;;;;;;9.25;8.55;;;;;;;29.47;30.57;100298.41;4862748;28;96776;-82
2021/10/02 09:59:44;;;;;;;8.45;7.85;;;;;;;28.73;32.13;100289.59;4880390;28;101584;-82
2021/10/02 10:02:18;;;;;;;9.52;8.57;;;;;;;28.25;32.52;100297.50;4892675;28;101098;-86
2021/10/02 10:04:51;;;;;;;9.60;8.75;;;;;;;27.59;33.70;100301.03;4882590;28;97454;-82
2021/10/02 10:07:17;;;;;;;9.88;9.07;;;;;;;27.81;33.93;100296.91;4890685;28;97369;-82
2021/10/02 10:10:08;;;;;;;10.10;9.10;;;;;;;28.04;33.60;100289.88;4912315;28;101668;-81
2021/10/02 10:12:34;;;;;;;10.35;9.35;;;;;;;27.66;33.78;100286.72;4896638;28;101955;-80
2021/10/02 10:15:00;;;;;;;10.18;9.32;;;;;;;27.24;34.55;100286.72;4897859;28;97116;-79
2021/10/02 10:17:29;;;;;;;12.27;10.07;;;;;;;26.85;35.35;100292.56;4922769;28;97159;-79
2021/10/02 10:20:09;;;;;;;11.67;10.73;;;;;;;25.79;37.32;100291.53;4890693;28;99876;-79
2021/10/02 10:22:36;;;;;;;12.55;11.32;;;;;;;24.99;38.66;100292.00;4883701;28;101879;-79
2021/10/02 10:25:11;;;;;;;13.63;12.23;;;;;;;23.94;40.84;100297.28;4897326;28;96964;-79
2021/10/02 10:27:45;;;;;;;11.57;10.43;;;;;;;23.61;41.67;100287.72;4916055;28;96870;-79
2021/10/02 10:30:18;;;;;;;12.50;11.00;;;;;;;23.33;41.64;100283.94;4932124;28;101812;-83
2021/10/02 10:33:09;;;;;;;15.07;11.60;;;;;;;22.98;42.86;100279.84;4900076;28;101317;-79
2021/10/02 10:35:40;;;;;;;12.32;11.30;;;;;;;23.03;42.94;100270.44;4879379;28;96741;-78
2021/10/02 10:38:08;;;;;;;12.57;11.23;;;;;;;23.03;42.76;100278.47;4902612;28;97902;-79
2021/10/02 10:40:34;;;;;;;14.65;12.30;;;;;;;22.87;43.38;100288.78;4904819;28;97792;-78
2021/10/02 10:43:00;;;;;;;15.32;11.82;;;;;;;22.91;43.50;100281.34;4926152;28;97425;-78
2021/10/02 10:45:26;;;;;;;13.27;11.65;;;;;;;22.99;43.63;100285.09;4899358;28;97342;-78
2021/10/02 10:47:52;;;;;;;13.05;11.77;;;;;;;22.79;44.08;100283.25;4916403;28;97241;-77
2021/10/02 10:50:18;;;;;;;13.43;12.23;;;;;;;22.52;44.68;100283.78;4886418;28;101085;-78
2021/10/02 10:52:45;;;;;;;13.50;12.20;;;;;;;22.23;45.63;100270.19;4884038;28;101283;-77
2021/10/02 10:55:12;;;;;;;17.95;12.55;;;;;;;22.16;45.75;100269.78;4913619;28;96764;-82
2021/10/02 10:57:46;;;;;;;16.70;12.65;;;;;;;22.06;45.88;100271.56;4916330;28;96862;-77
2021/10/02 11:00:14;;;;;;;13.63;12.27;;;;;;;22.01;45.68;100263.06;4887633;28;100808;-85
2021/10/02 11:02:48;;;;;;;13.55;12.25;;;;;;;21.88;45.96;100263.25;4915761;28;102259;-83
2021/10/02 11:05:46;;;;;;;13.25;11.93;;;;;;;21.96;46.08;100263.44;4883602;28;96803;-84
2021/10/02 11:08:22;;;;;;;13.10;11.80;;;;;;;21.99;46.11;100260.53;4894182;28;97355;-85
2021/10/02 11:10:53;;;;;;;18.05;12.45;;;;;;;22.16;46.05;100248.41;4884484;28;101358;-83
2021/10/02 11:13:27;;;;;;;13.88;12.55;;;;;;;22.09;45.95;100266.81;4868455;28;100985;-83
2021/10/02 11:15:55;;;;;;;13.85;12.35;;;;;;;22.34;45.51;100268.31;4910208;28;96919;-82
2021/10/02 11:18:45;;;;;;;12.45;11.35;;;;;;;22.23;45.17;100265.69;4882952;28;96889;-83
2021/10/02 11:21:16;;;;;;;16.13;11.82;;;;;;;22.21;45.04;100259.59;4912088;28;98646;-83
2021/10/02 11:23:54;;;;;;;14.98;12.60;;;;;;;21.88;46.18;100256.06;4883439;28;101033;-83
2021/10/02 11:26:25;;;;;;;13.60;11.75;;;;;;;21.82;46.19;100263.75;4890054;28;97016;-83
2021/10/02 11:29:00;;;;;;;13.13;11.93;;;;;;;21.85;46.67;100256.31;4892912;28;96895;-83
2021/10/02 11:31:26;;;;;;;16.40;11.68;;;;;;;21.69;47.19;100248.69;4895260;28;101592;-83
2021/10/02 11:33:58;;;;;;;13.52;12.13;;;;;;;22.05;46.54;100256.47;4877743;28;101274;-82
2021/10/02 11:36:35;;;;;;;12.65;11.48;;;;;;;22.12;46.18;100252.34;4862175;28;97181;-82
2021/10/02 11:39:21;;;;;;;12.10;10.93;;;;;;;22.18;45.97;100253.69;4882180;28;96813;-81
2021/10/02 11:41:50;;;;;;;13.63;12.18;;;;;;;21.98;46.46;100253.47;4897624;28;100519;-81
2021/10/02 11:44:47;;;;;;;12.52;11.25;;;;;;;21.75;47.49;100244.69;4889566;28;101225;-86
2021/10/02 11:47:37;;;;;;;12.63;11.23;;;;;;;21.84;47.29;100237.72;4872837;28;97199;-81
2021/10/02 11:50:12;;;;;;;12.97;11.40;;;;;;;21.84;47.48;100248.41;4900272;28;96828;-81
2021/10/02 11:52:43;;;;;;;12.40;11.07;;;;;;;21.78;47.33;100246.25;4898849;28;101784;-81
2021/10/02 11:55:38;;;;;;;12.98;11.07;;;;;;;21.67;47.40;100248.00;4883652;28;101574;-81
2021/10/02 11:58:06;;;;;;;12.48;11.18;;;;;;;21.69;46.99;100251.38;4883882;28;96967;-81
2021/10/02 12:00:36;;;;;;;15.50;11.10;;;;;;;21.69;47.31;100248.69;4880162;28;97097;-81
2021/10/02 12:03:02;;;;;;;16.27;11.07;;;;;;;21.70;47.65;100249.56;4863751;28;101163;-81
2021/10/02 12:05:28;;;;;;;12.18;10.73;;;;;;;21.62;47.91;100249.34;4870524;28;100886;-81
2021/10/02 12:07:54;;;;;;;14.48;12.98;;;;;;;21.60;47.95;100256.63;4881928;28;97435;-81
2021/10/02 12:10:20;;;;;;;13.18;11.88;;;;;;;21.75;47.71;100257.19;4908889;28;97626;-82
2021/10/02 12:12:46;;;;;;;12.52;11.43;;;;;;;21.82;47.78;100253.91;4886184;28;101016;-81
2021/10/02 12:15:11;;;;;;;13.93;12.13;;;;;;;21.76;47.73;100248.19;4882949;28;101010;-81
2021/10/02 12:17:53;;;;;;;15.23;11.77;;;;;;;21.69;48.26;100242.50;4898728;28;96703;-81
2021/10/02 12:20:18;;;;;;;12.25;10.93;;;;;;;21.83;48.15;100242.22;4927149;28;96963;-85
2021/10/02 12:22:44;;;;;;;13.85;11.77;;;;;;;21.74;47.86;100248.34;4884023;28;101557;-80
2021/10/02 12:25:09;;;;;;;14.40;12.30;;;;;;;21.62;48.35;100247.50;4894436;28;97633;-81
2021/10/02 12:27:36;;;;;;;14.20;11.50;;;;;;;21.59;48.27;100247.75;4913162;28;96768;-81
2021/10/02 12:30:03;;;;;;;13.13;11.68;;;;;;;21.47;48.11;100251.44;4934195;28;96940;-81
2021/10/02 12:32:30;;;;;;;14.57;11.65;;;;;;;21.55;47.91;100256.97;4918502;28;99387;-82
2021/10/02 12:34:58;;;;;;;13.52;11.18;;;;;;;21.56;48.42;100252.50;4910125;28;101710;-81
2021/10/02 12:37:32;;;;;;;13.50;11.73;;;;;;;21.66;47.50;100256.97;4914405;28;96771;-81
2021/10/02 12:40:00;;;;;;;12.13;11.07;;;;;;;21.62;47.47;100239.50;4896438;28;97335;-81
2021/10/02 12:42:31;;;;;;;12.43;11.32;;;;;;;21.56;47.29;100249.84;4904769;28;101553;-81
2021/10/02 12:44:57;;;;;;;11.00;9.90;;;;;;;21.53;47.32;100250.09;4934641;28;98353;-81
2021/10/02 12:47:24;;;;;;;10.80;9.80;;;;;;;21.59;47.37;100249.59;4889705;28;96700;-81
2021/10/02 12:49:52;;;;;;;11.13;10.13;;;;;;;21.60;47.05;100257.47;4892498;28;96990;-80
2021/10/02 12:52:20;;;;;;;11.48;10.32;;;;;;;21.60;46.60;100251.28;4895240;28;99487;-85
2021/10/02 12:54:48;;;;;;;12.15;10.77;;;;;;;21.64;46.57;100242.03;4899524;28;101282;-82
2021/10/02 12:57:17;;;;;;;13.35;10.05;;;;;;;21.54;46.73;100241.94;4882043;28;97073;-80
2021/10/02 12:59:49;;;;;;;11.52;10.52;;;;;;;21.49;47.17;100236.13;4908738;28;97031;-81
2021/10/02 13:02:17;;;;;;;16.52;10.52;;;;;;;21.48;47.08;100232.59;4925983;28;101837;-82
2021/10/02 13:04:43;;;;;;;11.27;9.48;;;;;;;21.54;47.53;100233.09;4904118;28;98209;-81
2021/10/02 13:07:09;;;;;;;11.98;9.90;;;;;;;21.52;47.16;100225.19;4901255;28;96916;-81
2021/10/02 13:09:54;;;;;;;14.73;10.27;;;;;;;21.76;46.63;100222.34;4934014;28;97488;-81
2021/10/02 13:12:28;;;;;;;19.90;10.82;;;;;;;21.73;46.21;100227.06;4932893;28;101478;-82
2021/10/02 13:14:58;;;;;;;14.15;9.95;;;;;;;21.73;46.40;100224.41;4917152;28;101133;-81
2021/10/02 13:17:24;;;;;;;10.83;9.87;;;;;;;21.61;45.82;100218.25;4882184;28;96715;-79
2021/10/02 13:20:07;;;;;;;9.90;8.90;;;;;;;21.63;46.10;100225.16;4906960;28;96784;-78
2021/10/02 13:22:41;;;;;;;11.27;10.20;;;;;;;21.66;46.31;100229.41;4913662;28;97594;-79
2021/10/02 13:25:23;;;;;;;10.05;9.23;;;;;;;21.67;46.30;100213.28;4897682;28;101378;-79
2021/10/02 13:27:53;;;;;;;11.23;10.13;;;;;;;21.75;46.41;100225.97;4886261;28;96855;-80
2021/10/02 13:30:23;;;;;;;11.17;10.10;;;;;;;21.76;46.70;100221.47;4899267;28;96905;-84
2021/10/02 13:32:57;;;;;;;11.43;10.32;;;;;;;21.61;47.10;100213.78;4926437;28;98073;-81
2021/10/02 13:35:24;;;;;;;11.35;10.15;;;;;;;21.58;46.68;100227.34;4885133;28;101611;-81
2021/10/02 13:37:50;;;;;;;11.50;10.45;;;;;;;21.55;47.24;100224.09;4900167;28;97208;-76
2021/10/02 13:40:29;;;;;;;17.38;11.13;;;;;;;21.51;46.93;100236.00;4915139;28;97378;-79
2021/10/02 13:42:55;;;;;;;11.57;10.40;;;;;;;21.57;46.81;100231.00;4903081;28;100918;-75
2021/10/02 13:45:26;;;;;;;11.10;9.82;;;;;;;21.60;46.47;100236.09;4913194;28;97839;-76
2021/10/02 13:48:08;;;;;;;11.82;10.50;;;;;;;21.59;46.80;100242.44;4883748;28;97116;-75
2021/10/02 13:50:40;;;;;;;12.10;10.93;;;;;;;21.54;46.53;100227.75;4887038;28;97187;-76
2021/10/02 13:53:06;;;;;;;11.77;10.63;;;;;;;21.46;46.79;100223.84;4880104;28;101250;-75
2021/10/02 13:55:32;;;;;;;12.32;11.02;;;;;;;21.28;47.70;100224.47;4904021;28;97282;-75
2021/10/02 13:57:58;;;;;;;13.88;11.32;;;;;;;21.24;47.79;100231.88;4910093;28;96750;-77
2021/10/02 14:00:25;;;;;;;13.80;12.43;;;;;;;21.16;47.99;100221.81;4904037;28;96903;-76
2021/10/02 14:02:52;;;;;;;12.32;11.02;;;;;;;21.16;48.31;100221.81;4912856;28;97795;-76
2021/10/02 14:05:19;;;;;;;13.18;11.85;;;;;;;21.17;48.08;100220.84;4911561;28;98089;-80
2021/10/02 14:07:44;;;;;;;13.70;12.05;;;;;;;21.18;48.13;100222.56;4895215;28;97089;-75
2021/10/02 14:10:10;;;;;;;13.60;11.85;;;;;;;21.20;48.28;100228.59;4905030;28;97018;-75
2021/10/02 14:12:35;;;;;;;13.85;12.05;;;;;;;21.19;48.32;100229.56;4895485;28;101204;-75
2021/10/02 14:15:02;;;;;;;16.88;12.80;;;;;;;21.09;48.79;100231.28;4889052;28;101388;-75
2021/10/02 14:17:27;;;;;;;14.75;12.98;;;;;;;21.10;48.88;100232.13;4912768;28;97153;-76
2021/10/02 14:19:53;;;;;;;14.98;13.07;;;;;;;21.03;48.99;100235.28;4905618;28;97025;-74
2021/10/02 14:22:19;;;;;;;16.80;12.57;;;;;;;21.06;48.95;100223.53;4896791;28;101766;-79
2021/10/02 14:24:44;;;;;;;15.70;13.10;;;;;;;21.08;48.64;100231.41;4901113;28;101285;-75
2021/10/02 14:27:10;;;;;;;15.52;13.88;;;;;;;21.10;48.61;100241.00;4893158;28;97103;-74
2021/10/02 14:29:37;;;;;;;15.95;13.38;;;;;;;21.08;48.68;100237.59;4882702;28;97038;-77
2021/10/02 14:32:03;;;;;;;14.07;12.68;;;;;;;21.04;48.55;100238.81;4908100;28;101810;-77
2021/10/02 14:34:30;;;;;;;15.73;14.13;;;;;;;21.06;49.03;100241.34;4896139;28;97947;-79
2021/10/02 14:36:56;;;;;;;15.82;14.27;;;;;;;20.95;48.79;100226.19;4875788;28;97138;-78
2021/10/02 14:39:22;;;;;;;14.73;13.10;;;;;;;20.86;49.06;100242.94;4887699;28;97428;-81
2021/10/02 14:41:48;;;;;;;15.85;14.25;;;;;;;20.83;49.28;100232.47;4913602;28;97971;-74
2021/10/02 14:44:14;;;;;;;15.40;13.88;;;;;;;20.78;49.33;100227.53;4884901;28;101437;-74
2021/10/02 14:46:40;;;;;;;15.90;13.45;;;;;;;20.72;49.04;100225.34;4894974;28;96869;-75
2021/10/02 14:49:06;;;;;;;14.32;12.93;;;;;;;20.65;49.08;100222.28;4889084;28;96955;-77
2021/10/02 14:51:32;;;;;;;15.00;13.43;;;;;;;20.67;48.87;100223.00;4902565;28;100777;-86
2021/10/02 14:53:58;;;;;;;14.18;12.68;;;;;;;20.70;48.64;100213.94;4919918;28;97511;-81
2021/10/02 14:56:25;;;;;;;15.77;12.95;;;;;;;20.71;48.50;100215.59;4932408;28;96694;-82
2021/10/02 14:58:50;;;;;;;15.15;13.15;;;;;;;20.66;48.49;100209.81;4929171;28;98230;-80
2021/10/02 15:01:16;;;;;;;14.65;13.15;;;;;;;20.68;48.69;100213.19;4912717;28;101492;-81
2021/10/02 15:03:47;;;;;;;18.20;12.30;;;;;;;20.64;48.65;100211.75;4883871;28;101351;-80
2021/10/02 15:06:13;;;;;;;20.42;13.45;;;;;;;20.67;48.68;100211.50;4900135;28;97374;-81
2021/10/02 15:08:38;;;;;;;19.05;12.73;;;;;;;20.63;48.63;100215.38;4919114;28;97047;-81
2021/10/02 15:11:05;;;;;;;14.15;12.77;;;;;;;20.61;48.38;100209.31;4931498;28;98477;-80
2021/10/02 15:13:31;;;;;;;14.10;12.68;;;;;;;20.58;48.58;100213.06;4924181;28;101475;-78
2021/10/02 15:15:57;;;;;;;19.05;14.82;;;;;;;20.55;48.14;100207.97;4921849;28;97158;-79